Terminal Aerodrome Forecast
Issued by NWS

Home | Current Version | Previous Version | Text Only | Print | Product List | Glossary On
Versions: 1 2 3 4 5 6 7 8 9 10 11 12 13
000
FTUS46 KSGX 021141
TAFSNA
TAF
KSNA 021141Z 0212/0312 VRB04KT P6SM VCSH SCT025 BKN035
     FM021700 16010KT P6SM -SHRA VCTS SCT025 BKN040CB
     FM022000 21011KT P6SM VCSH SCT030 BKN040
     FM030300 VRB05KT P6SM SCT025 BKN050=

USA.gov is the U.S. government's official web portal to all federal, state and local government web resources and services.